sensor_id;sensor_type;location;lat;lon;timestamp;temperature;humidity
20672;DHT22;10495;50.922;4.760;2022-09-09T00:00:24;16.50;90.30
20672;DHT22;10495;50.922;4.760;2022-09-09T00:06:04;16.50;90.20
20672;DHT22;10495;50.922;4.760;2022-09-09T00:11:39;16.50;90.20
20672;DHT22;10495;50.922;4.760;2022-09-09T00:14:59;16.40;90.30
20672;DHT22;10495;50.922;4.760;2022-09-09T00:17:02;16.40;90.40
20672;DHT22;10495;50.922;4.760;2022-09-09T00:19:37;16.30;90.40
20672;DHT22;10495;50.922;4.760;2022-09-09T00:22:16;16.30;90.50
20672;DHT22;10495;50.922;4.760;2022-09-09T00:24:46;16.40;90.40
20672;DHT22;10495;50.922;4.760;2022-09-09T00:27:34;16.30;90.30
20672;DHT22;10495;50.922;4.760;2022-09-09T00:30:20;16.30;90.30
20672;DHT22;10495;50.922;4.760;2022-09-09T00:32:50;16.30;90.30
20672;DHT22;10495;50.922;4.760;2022-09-09T00:35:22;16.40;90.20
20672;DHT22;10495;50.922;4.760;2022-09-09T00:37:53;16.40;90.20
20672;DHT22;10495;50.922;4.760;2022-09-09T00:40:24;16.40;90.10
20672;DHT22;10495;50.922;4.760;2022-09-09T00:51:26;16.20;90.50
20672;DHT22;10495;50.922;4.760;2022-09-09T01:00:47;16.10;90.70
20672;DHT22;10495;50.922;4.760;2022-09-09T01:17:14;16.40;90.70
20672;DHT22;10495;50.922;4.760;2022-09-09T01:20:17;16.30;90.80
20672;DHT22;10495;50.922;4.760;2022-09-09T01:25:20;16.50;90.40
20672;DHT22;10495;50.922;4.760;2022-09-09T01:27:48;16.40;90.50
20672;DHT22;10495;50.922;4.760;2022-09-09T01:30:16;16.40;90.50
20672;DHT22;10495;50.922;4.760;2022-09-09T01:32:52;16.60;90.30
20672;DHT22;10495;50.922;4.760;2022-09-09T01:37:58;16.50;90.30
20672;DHT22;10495;50.922;4.760;2022-09-09T01:40:25;16.60;90.10
20672;DHT22;10495;50.922;4.760;2022-09-09T01:42:51;16.50;90.50
20672;DHT22;10495;50.922;4.760;2022-09-09T01:45:17;16.40;90.40
20672;DHT22;10495;50.922;4.760;2022-09-09T01:47:44;16.50;90.40
20672;DHT22;10495;50.922;4.760;2022-09-09T01:50:12;16.40;90.40
20672;DHT22;10495;50.922;4.760;2022-09-09T01:52:39;16.50;90.40
20672;DHT22;10495;50.922;4.760;2022-09-09T01:55:06;16.60;90.30
20672;DHT22;10495;50.922;4.760;2022-09-09T02:00:13;16.60;90.20
20672;DHT22;10495;50.922;4.760;2022-09-09T02:03:05;16.70;90.10
20672;DHT22;10495;50.922;4.760;2022-09-09T02:08:10;16.60;90.00
20672;DHT22;10495;50.922;4.760;2022-09-09T02:10:52;16.50;90.10
20672;DHT22;10495;50.922;4.760;2022-09-09T02:13:21;16.50;90.20
20672;DHT22;10495;50.922;4.760;2022-09-09T02:16:04;16.60;90.20
20672;DHT22;10495;50.922;4.760;2022-09-09T02:18:40;16.40;90.40
20672;DHT22;10495;50.922;4.760;2022-09-09T02:21:07;16.60;90.20
20672;DHT22;10495;50.922;4.760;2022-09-09T02:23:34;16.50;90.30
20672;DHT22;10495;50.922;4.760;2022-09-09T02:26:01;16.60;90.40
20672;DHT22;10495;50.922;4.760;2022-09-09T02:28:30;16.50;90.30
20672;DHT22;10495;50.922;4.760;2022-09-09T02:30:57;16.60;90.30
20672;DHT22;10495;50.922;4.760;2022-09-09T02:33:28;16.40;90.50
20672;DHT22;10495;50.922;4.760;2022-09-09T02:35:56;16.40;90.70
20672;DHT22;10495;50.922;4.760;2022-09-09T02:38:29;16.40;90.60
20672;DHT22;10495;50.922;4.760;2022-09-09T02:40:57;16.50;90.60
20672;DHT22;10495;50.922;4.760;2022-09-09T02:43:24;16.50;90.60
20672;DHT22;10495;50.922;4.760;2022-09-09T02:51:32;16.50;90.50
20672;DHT22;10495;50.922;4.760;2022-09-09T02:54:10;16.50;90.60
20672;DHT22;10495;50.922;4.760;2022-09-09T02:56:41;16.50;90.60
20672;DHT22;10495;50.922;4.760;2022-09-09T02:59:08;16.40;90.70
20672;DHT22;10495;50.922;4.760;2022-09-09T03:01:33;16.50;90.50
20672;DHT22;10495;50.922;4.760;2022-09-09T03:04:01;16.50;90.40
20672;DHT22;10495;50.922;4.760;2022-09-09T03:06:27;16.50;90.50
20672;DHT22;10495;50.922;4.760;2022-09-09T03:08:53;16.60;90.50
20672;DHT22;10495;50.922;4.760;2022-09-09T03:11:19;16.60;90.30
20672;DHT22;10495;50.922;4.760;2022-09-09T03:13:44;16.60;90.30
20672;DHT22;10495;50.922;4.760;2022-09-09T03:16:10;16.70;90.20
20672;DHT22;10495;50.922;4.760;2022-09-09T03:18:35;16.70;90.30
20672;DHT22;10495;50.922;4.760;2022-09-09T03:21:01;16.60;90.20
20672;DHT22;10495;50.922;4.760;2022-09-09T03:23:26;16.60;90.30
20672;DHT22;10495;50.922;4.760;2022-09-09T03:25:52;16.50;90.40
20672;DHT22;10495;50.922;4.760;2022-09-09T03:28:22;16.40;90.50
20672;DHT22;10495;50.922;4.760;2022-09-09T03:30:48;16.40;90.60
20672;DHT22;10495;50.922;4.760;2022-09-09T03:33:14;16.50;90.40
20672;DHT22;10495;50.922;4.760;2022-09-09T03:35:47;16.50;90.40
20672;DHT22;10495;50.922;4.760;2022-09-09T03:38:14;16.50;90.20
20672;DHT22;10495;50.922;4.760;2022-09-09T03:40:47;16.50;90.30
20672;DHT22;10495;50.922;4.760;2022-09-09T03:43:14;16.70;90.10
20672;DHT22;10495;50.922;4.760;2022-09-09T03:45:45;16.60;90.00
20672;DHT22;10495;50.922;4.760;2022-09-09T03:48:13;17.00;89.20
20672;DHT22;10495;50.922;4.760;2022-09-09T03:50:38;17.10;88.60
20672;DHT22;10495;50.922;4.760;2022-09-09T03:53:04;16.90;88.90
20672;DHT22;10495;50.922;4.760;2022-09-09T03:55:31;16.70;89.50
20672;DHT22;10495;50.922;4.760;2022-09-09T03:57:57;16.70;89.60
20672;DHT22;10495;50.922;4.760;2022-09-09T04:00:23;16.50;90.20
20672;DHT22;10495;50.922;4.760;2022-09-09T04:02:49;16.40;90.40
20672;DHT22;10495;50.922;4.760;2022-09-09T04:05:15;16.40;90.40
20672;DHT22;10495;50.922;4.760;2022-09-09T04:07:41;16.40;90.50
20672;DHT22;10495;50.922;4.760;2022-09-09T04:10:07;16.30;90.50
20672;DHT22;10495;50.922;4.760;2022-09-09T04:12:33;16.40;90.40
20672;DHT22;10495;50.922;4.760;2022-09-09T04:15:00;16.40;90.50
20672;DHT22;10495;50.922;4.760;2022-09-09T04:17:27;16.50;90.40
20672;DHT22;10495;50.922;4.760;2022-09-09T04:19:53;16.40;90.30
20672;DHT22;10495;50.922;4.760;2022-09-09T04:22:18;16.50;90.00
20672;DHT22;10495;50.922;4.760;2022-09-09T04:24:44;16.30;90.40
20672;DHT22;10495;50.922;4.760;2022-09-09T04:27:09;16.50;90.30
20672;DHT22;10495;50.922;4.760;2022-09-09T04:29:35;16.70;90.00
20672;DHT22;10495;50.922;4.760;2022-09-09T04:32:01;16.60;90.00
20672;DHT22;10495;50.922;4.760;2022-09-09T04:34:26;16.50;90.00
20672;DHT22;10495;50.922;4.760;2022-09-09T04:36:52;16.50;90.10
20672;DHT22;10495;50.922;4.760;2022-09-09T04:39:17;16.50;90.10
20672;DHT22;10495;50.922;4.760;2022-09-09T04:41:43;16.50;90.00
20672;DHT22;10495;50.922;4.760;2022-09-09T04:44:09;16.50;90.20
20672;DHT22;10495;50.922;4.760;2022-09-09T04:46:35;16.50;90.30
20672;DHT22;10495;50.922;4.760;2022-09-09T04:49:00;16.50;90.40
20672;DHT22;10495;50.922;4.760;2022-09-09T04:51:26;16.40;90.40
20672;DHT22;10495;50.922;4.760;2022-09-09T04:53:52;16.50;90.30
20672;DHT22;10495;50.922;4.760;2022-09-09T04:56:19;16.60;90.10
20672;DHT22;10495;50.922;4.760;2022-09-09T04:58:45;16.70;90.10
20672;DHT22;10495;50.922;4.760;2022-09-09T05:01:17;16.50;90.10
20672;DHT22;10495;50.922;4.760;2022-09-09T05:03:43;16.50;90.20
20672;DHT22;10495;50.922;4.760;2022-09-09T05:06:13;16.50;90.20
20672;DHT22;10495;50.922;4.760;2022-09-09T05:08:40;16.50;90.10
20672;DHT22;10495;50.922;4.760;2022-09-09T05:13:50;16.40;90.30
20672;DHT22;10495;50.922;4.760;2022-09-09T05:16:16;16.20;90.50
20672;DHT22;10495;50.922;4.760;2022-09-09T05:18:43;16.40;90.40
20672;DHT22;10495;50.922;4.760;2022-09-09T05:21:10;16.30;90.20
20672;DHT22;10495;50.922;4.760;2022-09-09T05:23:36;16.40;90.40
20672;DHT22;10495;50.922;4.760;2022-09-09T05:26:03;16.50;90.20
20672;DHT22;10495;50.922;4.760;2022-09-09T05:28:29;16.40;90.20
20672;DHT22;10495;50.922;4.760;2022-09-09T05:31:03;16.40;90.40
20672;DHT22;10495;50.922;4.760;2022-09-09T05:33:34;16.30;90.50
20672;DHT22;10495;50.922;4.760;2022-09-09T05:36:02;16.30;90.80
20672;DHT22;10495;50.922;4.760;2022-09-09T05:38:29;16.20;90.80
20672;DHT22;10495;50.922;4.760;2022-09-09T05:40:56;16.40;90.70
20672;DHT22;10495;50.922;4.760;2022-09-09T05:43:23;16.40;90.50
20672;DHT22;10495;50.922;4.760;2022-09-09T05:46:08;16.40;90.60
20672;DHT22;10495;50.922;4.760;2022-09-09T05:48:38;16.60;90.50
20672;DHT22;10495;50.922;4.760;2022-09-09T05:51:06;16.60;90.30
20672;DHT22;10495;50.922;4.760;2022-09-09T05:53:32;16.60;90.50
20672;DHT22;10495;50.922;4.760;2022-09-09T05:56:04;16.80;90.10
20672;DHT22;10495;50.922;4.760;2022-09-09T05:58:34;16.90;90.10
20672;DHT22;10495;50.922;4.760;2022-09-09T06:01:08;17.10;90.20
20672;DHT22;10495;50.922;4.760;2022-09-09T06:03:36;17.20;90.00
20672;DHT22;10495;50.922;4.760;2022-09-09T06:06:04;17.20;89.90
20672;DHT22;10495;50.922;4.760;2022-09-09T06:08:31;17.30;89.90
20672;DHT22;10495;50.922;4.760;2022-09-09T06:11:05;17.60;89.80
20672;DHT22;10495;50.922;4.760;2022-09-09T06:13:31;17.90;88.10
20672;DHT22;10495;50.922;4.760;2022-09-09T06:15:58;18.00;86.90
20672;DHT22;10495;50.922;4.760;2022-09-09T06:18:24;18.00;87.40
20672;DHT22;10495;50.922;4.760;2022-09-09T06:20:58;17.80;86.80
20672;DHT22;10495;50.922;4.760;2022-09-09T06:23:25;17.80;87.10
20672;DHT22;10495;50.922;4.760;2022-09-09T06:25:51;17.80;86.00
20672;DHT22;10495;50.922;4.760;2022-09-09T06:28:18;17.60;86.30
20672;DHT22;10495;50.922;4.760;2022-09-09T06:30:44;17.60;87.00
20672;DHT22;10495;50.922;4.760;2022-09-09T06:33:10;17.70;85.70
20672;DHT22;10495;50.922;4.760;2022-09-09T06:35:36;17.80;85.20
20672;DHT22;10495;50.922;4.760;2022-09-09T06:38:01;17.70;86.10
20672;DHT22;10495;50.922;4.760;2022-09-09T06:40:27;17.60;86.50
20672;DHT22;10495;50.922;4.760;2022-09-09T06:42:52;17.90;86.00
20672;DHT22;10495;50.922;4.760;2022-09-09T06:45:18;18.00;85.80
20672;DHT22;10495;50.922;4.760;2022-09-09T06:47:44;17.90;85.40
20672;DHT22;10495;50.922;4.760;2022-09-09T06:50:10;18.00;85.70
20672;DHT22;10495;50.922;4.760;2022-09-09T06:52:36;18.20;84.60
20672;DHT22;10495;50.922;4.760;2022-09-09T06:55:02;18.30;85.20
20672;DHT22;10495;50.922;4.760;2022-09-09T06:57:29;18.50;85.30
20672;DHT22;10495;50.922;4.760;2022-09-09T06:59:54;18.60;84.50
20672;DHT22;10495;50.922;4.760;2022-09-09T07:02:20;18.80;84.30
20672;DHT22;10495;50.922;4.760;2022-09-09T07:04:46;18.80;83.90
20672;DHT22;10495;50.922;4.760;2022-09-09T07:07:12;18.80;83.50
20672;DHT22;10495;50.922;4.760;2022-09-09T07:09:39;18.80;82.80
20672;DHT22;10495;50.922;4.760;2022-09-09T07:12:05;18.80;82.10
20672;DHT22;10495;50.922;4.760;2022-09-09T07:14:32;18.70;82.50
20672;DHT22;10495;50.922;4.760;2022-09-09T07:16:59;18.70;82.90
20672;DHT22;10495;50.922;4.760;2022-09-09T07:19:25;18.70;83.30
20672;DHT22;10495;50.922;4.760;2022-09-09T07:21:51;18.70;83.10
20672;DHT22;10495;50.922;4.760;2022-09-09T07:24:16;18.80;81.80
20672;DHT22;10495;50.922;4.760;2022-09-09T07:26:42;18.80;83.00
20672;DHT22;10495;50.922;4.760;2022-09-09T07:29:09;18.60;82.90
20672;DHT22;10495;50.922;4.760;2022-09-09T07:31:37;18.60;82.60
20672;DHT22;10495;50.922;4.760;2022-09-09T07:34:03;18.60;81.90
20672;DHT22;10495;50.922;4.760;2022-09-09T07:36:37;18.50;82.20
20672;DHT22;10495;50.922;4.760;2022-09-09T07:39:06;18.40;83.10
20672;DHT22;10495;50.922;4.760;2022-09-09T07:41:43;18.60;82.80
20672;DHT22;10495;50.922;4.760;2022-09-09T07:44:11;18.70;80.90
20672;DHT22;10495;50.922;4.760;2022-09-09T07:46:38;18.40;82.60
20672;DHT22;10495;50.922;4.760;2022-09-09T07:49:08;18.50;82.50
20672;DHT22;10495;50.922;4.760;2022-09-09T07:51:39;18.50;82.80
20672;DHT22;10495;50.922;4.760;2022-09-09T07:54:09;18.40;83.30
20672;DHT22;10495;50.922;4.760;2022-09-09T07:56:35;18.40;82.90
20672;DHT22;10495;50.922;4.760;2022-09-09T07:59:01;18.30;83.70
20672;DHT22;10495;50.922;4.760;2022-09-09T08:01:31;18.20;84.10
20672;DHT22;10495;50.922;4.760;2022-09-09T08:04:00;18.40;84.70
20672;DHT22;10495;50.922;4.760;2022-09-09T08:06:32;18.30;85.40
20672;DHT22;10495;50.922;4.760;2022-09-09T08:09:00;18.20;87.00
20672;DHT22;10495;50.922;4.760;2022-09-09T08:11:28;18.40;86.50
20672;DHT22;10495;50.922;4.760;2022-09-09T08:13:55;18.60;85.20
20672;DHT22;10495;50.922;4.760;2022-09-09T08:16:32;18.70;84.80
20672;DHT22;10495;50.922;4.760;2022-09-09T08:18:58;18.80;83.40
20672;DHT22;10495;50.922;4.760;2022-09-09T08:21:26;18.70;84.00
20672;DHT22;10495;50.922;4.760;2022-09-09T08:23:54;18.60;83.10
20672;DHT22;10495;50.922;4.760;2022-09-09T08:26:22;18.70;84.30
20672;DHT22;10495;50.922;4.760;2022-09-09T08:28:52;18.80;83.30
20672;DHT22;10495;50.922;4.760;2022-09-09T08:31:29;18.70;84.40
20672;DHT22;10495;50.922;4.760;2022-09-09T08:33:56;18.70;84.90
20672;DHT22;10495;50.922;4.760;2022-09-09T08:36:24;18.80;83.60
20672;DHT22;10495;50.922;4.760;2022-09-09T08:38:52;19.10;83.00
20672;DHT22;10495;50.922;4.760;2022-09-09T08:44:07;19.40;81.60
20672;DHT22;10495;50.922;4.760;2022-09-09T08:52:48;19.60;79.50
20672;DHT22;10495;50.922;4.760;2022-09-09T08:57:52;19.70;79.10
20672;DHT22;10495;50.922;4.760;2022-09-09T09:00:19;19.50;79.60
20672;DHT22;10495;50.922;4.760;2022-09-09T09:02:56;19.60;78.70
20672;DHT22;10495;50.922;4.760;2022-09-09T09:05:40;19.50;79.10
20672;DHT22;10495;50.922;4.760;2022-09-09T09:08:26;19.40;79.40
20672;DHT22;10495;50.922;4.760;2022-09-09T09:10:56;19.20;81.30
20672;DHT22;10495;50.922;4.760;2022-09-09T09:13:38;19.10;81.90
20672;DHT22;10495;50.922;4.760;2022-09-09T09:16:30;19.00;83.20
20672;DHT22;10495;50.922;4.760;2022-09-09T09:18:59;19.00;84.10
20672;DHT22;10495;50.922;4.760;2022-09-09T09:24:00;19.00;83.80
20672;DHT22;10495;50.922;4.760;2022-09-09T09:26:32;19.10;84.00
20672;DHT22;10495;50.922;4.760;2022-09-09T09:29:03;19.10;83.40
20672;DHT22;10495;50.922;4.760;2022-09-09T09:31:33;19.00;84.30
20672;DHT22;10495;50.922;4.760;2022-09-09T09:33:59;18.80;84.30
20672;DHT22;10495;50.922;4.760;2022-09-09T09:36:40;18.90;84.70
20672;DHT22;10495;50.922;4.760;2022-09-09T09:39:07;18.80;85.70
20672;DHT22;10495;50.922;4.760;2022-09-09T09:41:40;18.80;86.00
20672;DHT22;10495;50.922;4.760;2022-09-09T09:44:23;18.70;87.00
20672;DHT22;10495;50.922;4.760;2022-09-09T09:46:50;18.60;87.10
20672;DHT22;10495;50.922;4.760;2022-09-09T09:49:15;18.60;87.30
20672;DHT22;10495;50.922;4.760;2022-09-09T09:51:42;18.60;87.20
20672;DHT22;10495;50.922;4.760;2022-09-09T09:56:45;18.80;87.00
20672;DHT22;10495;50.922;4.760;2022-09-09T09:59:35;18.90;87.10
20672;DHT22;10495;50.922;4.760;2022-09-09T10:02:17;19.10;85.90
20672;DHT22;10495;50.922;4.760;2022-09-09T10:04:43;18.90;86.60
20672;DHT22;10495;50.922;4.760;2022-09-09T10:07:21;18.80;87.70
20672;DHT22;10495;50.922;4.760;2022-09-09T10:09:57;18.90;87.90
20672;DHT22;10495;50.922;4.760;2022-09-09T10:15:45;19.10;87.20
20672;DHT22;10495;50.922;4.760;2022-09-09T10:29:15;19.10;86.80
20672;DHT22;10495;50.922;4.760;2022-09-09T10:35:19;19.10;87.40
20672;DHT22;10495;50.922;4.760;2022-09-09T10:40:37;19.20;87.10
20672;DHT22;10495;50.922;4.760;2022-09-09T10:56:23;19.30;86.40
20672;DHT22;10495;50.922;4.760;2022-09-09T10:58:55;19.20;86.60
20672;DHT22;10495;50.922;4.760;2022-09-09T11:01:31;19.20;86.80
20672;DHT22;10495;50.922;4.760;2022-09-09T11:04:05;19.20;87.60
20672;DHT22;10495;50.922;4.760;2022-09-09T11:06:44;19.20;86.90
20672;DHT22;10495;50.922;4.760;2022-09-09T11:09:17;19.40;88.50
20672;DHT22;10495;50.922;4.760;2022-09-09T11:11:57;19.70;86.00
20672;DHT22;10495;50.922;4.760;2022-09-09T11:14:34;20.00;84.80
20672;DHT22;10495;50.922;4.760;2022-09-09T11:17:26;20.00;85.60
20672;DHT22;10495;50.922;4.760;2022-09-09T11:19:50;19.80;85.60
20672;DHT22;10495;50.922;4.760;2022-09-09T11:22:35;19.90;85.50
20672;DHT22;10495;50.922;4.760;2022-09-09T11:25:18;20.00;85.10
20672;DHT22;10495;50.922;4.760;2022-09-09T11:33:42;20.30;84.40
20672;DHT22;10495;50.922;4.760;2022-09-09T11:36:43;20.40;84.70
20672;DHT22;10495;50.922;4.760;2022-09-09T11:44:37;20.70;83.30
20672;DHT22;10495;50.922;4.760;2022-09-09T11:47:03;20.90;84.30
20672;DHT22;10495;50.922;4.760;2022-09-09T11:52:12;21.40;81.00
20672;DHT22;10495;50.922;4.760;2022-09-09T11:54:47;21.40;78.40
20672;DHT22;10495;50.922;4.760;2022-09-09T11:57:32;21.60;78.50
20672;DHT22;10495;50.922;4.760;2022-09-09T12:00:00;21.40;78.70
20672;DHT22;10495;50.922;4.760;2022-09-09T12:02:27;21.40;77.80
20672;DHT22;10495;50.922;4.760;2022-09-09T12:05:07;21.40;78.60
20672;DHT22;10495;50.922;4.760;2022-09-09T12:07:59;21.50;77.30
20672;DHT22;10495;50.922;4.760;2022-09-09T12:10:29;21.70;76.30
20672;DHT22;10495;50.922;4.760;2022-09-09T12:13:08;21.50;76.70
20672;DHT22;10495;50.922;4.760;2022-09-09T12:15:51;21.40;76.80
20672;DHT22;10495;50.922;4.760;2022-09-09T12:18:38;21.20;76.80
20672;DHT22;10495;50.922;4.760;2022-09-09T12:21:41;21.40;77.90
20672;DHT22;10495;50.922;4.760;2022-09-09T12:24:14;21.40;76.30
20672;DHT22;10495;50.922;4.760;2022-09-09T12:32:11;21.50;77.30
20672;DHT22;10495;50.922;4.760;2022-09-09T12:34:48;21.70;75.10
20672;DHT22;10495;50.922;4.760;2022-09-09T12:39:59;21.60;75.50
20672;DHT22;10495;50.922;4.760;2022-09-09T12:42:26;21.60;76.30
20672;DHT22;10495;50.922;4.760;2022-09-09T12:47:42;21.70;76.50
20672;DHT22;10495;50.922;4.760;2022-09-09T12:50:26;21.80;76.20
20672;DHT22;10495;50.922;4.760;2022-09-09T12:52:58;21.70;76.30
20672;DHT22;10495;50.922;4.760;2022-09-09T12:55:28;21.80;74.50
20672;DHT22;10495;50.922;4.760;2022-09-09T12:57:56;21.90;74.30
20672;DHT22;10495;50.922;4.760;2022-09-09T13:00:24;21.90;73.30
20672;DHT22;10495;50.922;4.760;2022-09-09T13:02:57;21.60;74.20
20672;DHT22;10495;50.922;4.760;2022-09-09T13:05:43;21.40;75.20
20672;DHT22;10495;50.922;4.760;2022-09-09T13:08:11;21.50;74.70
20672;DHT22;10495;50.922;4.760;2022-09-09T13:10:50;21.40;75.00
20672;DHT22;10495;50.922;4.760;2022-09-09T13:13:22;21.60;75.00
20672;DHT22;10495;50.922;4.760;2022-09-09T13:15:53;21.70;75.50
20672;DHT22;10495;50.922;4.760;2022-09-09T13:18:23;21.70;74.60
20672;DHT22;10495;50.922;4.760;2022-09-09T13:20:50;21.70;75.80
20672;DHT22;10495;50.922;4.760;2022-09-09T13:23:18;22.10;73.40
20672;DHT22;10495;50.922;4.760;2022-09-09T13:25:56;21.90;73.60
20672;DHT22;10495;50.922;4.760;2022-09-09T13:28:23;21.90;72.40
20672;DHT22;10495;50.922;4.760;2022-09-09T13:33:48;22.20;73.80
20672;DHT22;10495;50.922;4.760;2022-09-09T13:36:13;22.30;72.60
20672;DHT22;10495;50.922;4.760;2022-09-09T13:41:22;22.40;70.10
20672;DHT22;10495;50.922;4.760;2022-09-09T13:43:50;22.50;71.90
20672;DHT22;10495;50.922;4.760;2022-09-09T13:46:34;22.70;72.00
20672;DHT22;10495;50.922;4.760;2022-09-09T13:51:47;22.50;69.10
20672;DHT22;10495;50.922;4.760;2022-09-09T13:54:15;22.30;70.90
20672;DHT22;10495;50.922;4.760;2022-09-09T13:56:41;22.40;70.50
20672;DHT22;10495;50.922;4.760;2022-09-09T13:59:18;22.60;69.80
20672;DHT22;10495;50.922;4.760;2022-09-09T14:01:48;22.60;69.90
20672;DHT22;10495;50.922;4.760;2022-09-09T14:04:18;22.60;71.00
20672;DHT22;10495;50.922;4.760;2022-09-09T14:06:46;22.50;71.60
20672;DHT22;10495;50.922;4.760;2022-09-09T14:09:14;22.60;71.10
20672;DHT22;10495;50.922;4.760;2022-09-09T14:11:40;22.70;69.60
20672;DHT22;10495;50.922;4.760;2022-09-09T14:14:06;22.60;69.70
20672;DHT22;10495;50.922;4.760;2022-09-09T14:16:31;22.30;70.10
20672;DHT22;10495;50.922;4.760;2022-09-09T14:18:58;22.40;68.70
20672;DHT22;10495;50.922;4.760;2022-09-09T14:21:25;22.20;68.60
20672;DHT22;10495;50.922;4.760;2022-09-09T14:23:51;22.10;69.40
20672;DHT22;10495;50.922;4.760;2022-09-09T14:26:18;22.30;70.70
20672;DHT22;10495;50.922;4.760;2022-09-09T14:28:44;22.40;68.00
20672;DHT22;10495;50.922;4.760;2022-09-09T14:31:11;22.60;68.80
20672;DHT22;10495;50.922;4.760;2022-09-09T14:33:38;22.50;68.90
20672;DHT22;10495;50.922;4.760;2022-09-09T14:36:04;22.70;67.40
20672;DHT22;10495;50.922;4.760;2022-09-09T14:38:31;22.50;68.20
20672;DHT22;10495;50.922;4.760;2022-09-09T14:40:59;22.50;68.60
20672;DHT22;10495;50.922;4.760;2022-09-09T14:43:25;22.50;68.70
20672;DHT22;10495;50.922;4.760;2022-09-09T14:45:52;22.60;67.40
20672;DHT22;10495;50.922;4.760;2022-09-09T14:48:18;22.80;67.40
20672;DHT22;10495;50.922;4.760;2022-09-09T14:50:44;22.90;67.30
20672;DHT22;10495;50.922;4.760;2022-09-09T14:53:10;22.80;67.20
20672;DHT22;10495;50.922;4.760;2022-09-09T14:55:36;22.60;68.00
20672;DHT22;10495;50.922;4.760;2022-09-09T14:58:02;22.50;67.90
20672;DHT22;10495;50.922;4.760;2022-09-09T15:00:28;22.70;67.40
20672;DHT22;10495;50.922;4.760;2022-09-09T15:02:54;22.60;68.10
20672;DHT22;10495;50.922;4.760;2022-09-09T15:05:20;22.60;67.00
20672;DHT22;10495;50.922;4.760;2022-09-09T15:07:46;22.60;67.70
20672;DHT22;10495;50.922;4.760;2022-09-09T15:10:14;22.60;68.30
20672;DHT22;10495;50.922;4.760;2022-09-09T15:12:39;22.70;67.50
20672;DHT22;10495;50.922;4.760;2022-09-09T15:15:07;22.90;66.30
20672;DHT22;10495;50.922;4.760;2022-09-09T15:17:33;22.80;66.10
20672;DHT22;10495;50.922;4.760;2022-09-09T15:19:58;22.60;67.00
20672;DHT22;10495;50.922;4.760;2022-09-09T15:22:24;22.60;68.50
20672;DHT22;10495;50.922;4.760;2022-09-09T15:24:52;22.60;66.80
20672;DHT22;10495;50.922;4.760;2022-09-09T15:27:18;22.50;67.80
20672;DHT22;10495;50.922;4.760;2022-09-09T15:29:44;22.60;67.70
20672;DHT22;10495;50.922;4.760;2022-09-09T15:32:12;22.40;67.10
20672;DHT22;10495;50.922;4.760;2022-09-09T15:34:46;22.40;67.60
20672;DHT22;10495;50.922;4.760;2022-09-09T15:37:12;22.50;67.40
20672;DHT22;10495;50.922;4.760;2022-09-09T15:39:39;22.50;65.70
20672;DHT22;10495;50.922;4.760;2022-09-09T15:42:08;22.30;66.30
20672;DHT22;10495;50.922;4.760;2022-09-09T15:44:39;22.40;66.40
20672;DHT22;10495;50.922;4.760;2022-09-09T15:47:18;22.40;66.40
20672;DHT22;10495;50.922;4.760;2022-09-09T15:49:45;22.60;66.50
20672;DHT22;10495;50.922;4.760;2022-09-09T15:52:11;22.50;66.00
20672;DHT22;10495;50.922;4.760;2022-09-09T15:54:40;22.50;66.00
20672;DHT22;10495;50.922;4.760;2022-09-09T15:57:07;22.50;66.00
20672;DHT22;10495;50.922;4.760;2022-09-09T15:59:36;22.30;66.30
20672;DHT22;10495;50.922;4.760;2022-09-09T16:02:02;22.50;66.30
20672;DHT22;10495;50.922;4.760;2022-09-09T16:04:28;22.30;66.90
20672;DHT22;10495;50.922;4.760;2022-09-09T16:07:13;22.30;67.10
20672;DHT22;10495;50.922;4.760;2022-09-09T16:09:38;22.20;66.50
20672;DHT22;10495;50.922;4.760;2022-09-09T16:12:05;22.10;67.60
20672;DHT22;10495;50.922;4.760;2022-09-09T16:14:38;22.20;67.10
20672;DHT22;10495;50.922;4.760;2022-09-09T16:17:05;22.10;67.60
20672;DHT22;10495;50.922;4.760;2022-09-09T16:19:32;22.10;67.90
20672;DHT22;10495;50.922;4.760;2022-09-09T16:21:58;21.80;68.30
20672;DHT22;10495;50.922;4.760;2022-09-09T16:24:26;21.70;68.70
20672;DHT22;10495;50.922;4.760;2022-09-09T16:26:55;21.60;69.10
20672;DHT22;10495;50.922;4.760;2022-09-09T16:29:27;22.00;68.50
20672;DHT22;10495;50.922;4.760;2022-09-09T16:31:55;21.70;68.00
20672;DHT22;10495;50.922;4.760;2022-09-09T16:34:24;21.50;69.20
20672;DHT22;10495;50.922;4.760;2022-09-09T16:36:52;21.60;69.10
20672;DHT22;10495;50.922;4.760;2022-09-09T16:39:19;21.60;68.90
20672;DHT22;10495;50.922;4.760;2022-09-09T16:41:46;21.70;68.40
20672;DHT22;10495;50.922;4.760;2022-09-09T16:44:14;21.70;68.60
20672;DHT22;10495;50.922;4.760;2022-09-09T16:46:42;21.70;68.70
20672;DHT22;10495;50.922;4.760;2022-09-09T16:49:10;21.60;69.00
20672;DHT22;10495;50.922;4.760;2022-09-09T16:51:42;21.40;69.80
20672;DHT22;10495;50.922;4.760;2022-09-09T16:54:09;21.30;69.80
20672;DHT22;10495;50.922;4.760;2022-09-09T16:56:36;21.20;70.00
20672;DHT22;10495;50.922;4.760;2022-09-09T16:59:05;21.20;70.40
20672;DHT22;10495;50.922;4.760;2022-09-09T17:01:33;21.20;73.60
20672;DHT22;10495;50.922;4.760;2022-09-09T17:04:02;21.10;74.70
20672;DHT22;10495;50.922;4.760;2022-09-09T17:06:32;21.00;75.80
20672;DHT22;10495;50.922;4.760;2022-09-09T17:09:01;20.90;76.20
20672;DHT22;10495;50.922;4.760;2022-09-09T17:11:28;20.90;77.20
20672;DHT22;10495;50.922;4.760;2022-09-09T17:13:55;20.60;78.30
20672;DHT22;10495;50.922;4.760;2022-09-09T17:16:22;20.40;79.30
20672;DHT22;10495;50.922;4.760;2022-09-09T17:18:49;20.10;79.30
20672;DHT22;10495;50.922;4.760;2022-09-09T17:21:17;20.10;80.70
20672;DHT22;10495;50.922;4.760;2022-09-09T17:23:44;20.00;79.50
20672;DHT22;10495;50.922;4.760;2022-09-09T17:26:12;19.90;80.70
20672;DHT22;10495;50.922;4.760;2022-09-09T17:28:39;19.90;80.20
20672;DHT22;10495;50.922;4.760;2022-09-09T17:31:06;20.00;80.70
20672;DHT22;10495;50.922;4.760;2022-09-09T17:33:38;19.90;81.80
20672;DHT22;10495;50.922;4.760;2022-09-09T17:36:30;19.90;81.20
20672;DHT22;10495;50.922;4.760;2022-09-09T17:38:57;19.90;80.80
20672;DHT22;10495;50.922;4.760;2022-09-09T17:41:34;20.10;80.90
20672;DHT22;10495;50.922;4.760;2022-09-09T17:44:00;20.20;81.10
20672;DHT22;10495;50.922;4.760;2022-09-09T17:46:34;20.10;81.10
20672;DHT22;10495;50.922;4.760;2022-09-09T17:49:03;20.10;81.30
20672;DHT22;10495;50.922;4.760;2022-09-09T17:51:31;20.00;81.50
20672;DHT22;10495;50.922;4.760;2022-09-09T17:54:02;19.90;80.80
20672;DHT22;10495;50.922;4.760;2022-09-09T17:56:30;19.70;81.40
20672;DHT22;10495;50.922;4.760;2022-09-09T17:58:56;19.60;81.80
20672;DHT22;10495;50.922;4.760;2022-09-09T18:01:28;19.60;82.20
20672;DHT22;10495;50.922;4.760;2022-09-09T18:03:56;19.70;81.70